LJPZ METAR and TAF | Updated Today

LJPZ METAR

Portoroz Airport

Observation time: 33 min. ago

LJPZ 032200Z AUTO 11005KT 9999 NCD 01/M02 Q1015

Need help? Read our tutorial on how to read METARs or read the parsed version below.

Portoroz Airport (LJPZ) METAR

  • Weather conditions on Fri, 03 Dec 2021 22:00:00 +0000 (33 min. ago):
  • Present conditions: Dry
  • Clouds: Nil cloud detected
  • Visibility: Greater than 10 km
  • Wind: 110 degrees at 5 knots
  • Temperature: 1 celsius
  • Dew point: -2 celsius
  • Pressure: 1015 millibars
  • Remarks: None


Useful to know...

LJPZ TAF

Portoroz Airport

TAF LJPZ 032000Z 0321/0406 12006KT CAVOK
Observation time: 2:33 hr. ago
Need help? Read our tutorial on how to read TAFs or read the parsed version below.

Parsed version of TAF for Portoroz Airport (LJPZ)

  • From 03 December at 21:00 UTC, to day 04 of the month at 06:00 UTC
  • Visibility: Greater than 10 km
  • Wind: 120 degrees at 6